Hovedside
METAR-TAF:

METAR-TAF

Lufthavner :

Vamdrup

Kolding, Danmark

breddegrad: 55-26N, lengdegrad: 009-20E, høyde over havet: 44 m

Gjeldene værobservasjon

Denne rapporten ble laget for 1 time og 12 minutter siden, klokken 07:50 UTC
Vind 2 kt fra Nord-nordøst
Temperatur 4°C
Luftfuktighet 100%
Trykk 1037 hPa
Sikt: 3000 m
Brutte skyer i en høyde av 1500 ft
dis

METAR: EKVD 180750Z 03002KT 3000 BR BKN015 04/04 Q1037

Tid: 10:02 (09:02 UTC)

Varsel

Denne rapporten ble laget for 21 timer og 8 minutter siden, klokken 11:54 UTC
Varsel gyldig fra 17. klokken 12 UTC til 17. klokken 16 UTC
Vind 8 kt fra Øst-sørøst
Sikt 10 km eller mer
Spredte skyer i en høyde av 1500 ft

TAF: EKVD 171154Z 1712/1716 12008KT 9999 SCT015

Værobservasjoner og værvarsel for over 4000 flyplasser (METAR- og TAF-rapporter).

Tilgjengelige stasjoner er representert av de røde og gule prikkene på kartet.

Hold musepekeren over prikken for å se navnet på stasjonen.

Klikk så for å se værobservasjoner og -varsler.

For å forandre kartet kan du klikke på den grønne knappen med svart kryss for å zoome inn, på den grønne knappen med strek for å zoome ut, eller på de grønne pilene for å se tilstøtende kart.


METAR-TAF: